Etusivu
METAR-TAF:

METAR-TAF

Lentoasemat :

Alattio, Norja

Alattion lentoasema

Leveyspiiri: 69-59N, Pituuspiiri: 023-22E, korkeus merenpinnasta: 0 m

Tämänhetkinen sää

Tämä raportti tehtiin 58 minuuttia sitten, kello 17.50 UTC
Tuuli 10 kn etelästä/kaakosta
Lämpötila 17°C
Kosteus 48%
Ilmanpaine 1024 hPa
Näkyvyys 10 km tai enemmän

METAR: ENAT 221750Z AUTO 16010KT 9999 NCD 17/06 Q1024 RMK WIND 700FT 15017KT

Aika: 20:48 (18:48 UTC)

Sääennuste

Tämä raportti tehtiin 13 tuntia ja 48 minuuttia sitten, kello 05.00 UTC
Ennuste voimassa 22. päivästä klo 06 UTC - 22. päivään klo 13 UTC
Tuuli 5 kn eri suunnista
Näkyvyys 10 km tai enemmän
Muutamia pilviä 1500 ft:n korkeudessa
Hajonneita pilviä 3000 ft:n korkeudessa

TAF: ENAT 220500Z 2206/2213 VRB05KT 9999 FEW015 BKN030

Säähavainnot ja -ennusteet yli 4000 lentoasemalta (METAR- ja TAF-raportit).

Käytössä olevat sääasemat on merkitty karttaan keltaisilla ja punaisilla pisteillä.

Aseta hiiri pisteen päälle nähdäksesi sääaseman nimen.

Klikkaa sitten nähdäksesi säähavainnot ja -ennusteet.

Kartan vaihtaminen: klikkaa mustalla rastilla varustettuja vihreitä pisteitä, niin voit zoomata sisään; viivalla varustettua vihreää pistettä, niin voit zoomata ulos tai vihreitä nuolia, niin pääset viereisille kartoille.


METAR-TAF: